Molena, Georgia
Current Conditions -  °F | °C
As of 12:55 PM on Sunday 21 Dec 2014 (Local Time) from KOPN Reporting Station
Overcast Overcast  
Wind Chill: 52°   Ceiling: 900
Heat Index: 52°   Visibility: 10mi
Dew Point: 46°   Wind: 9mph
Humidity: 82%   Direction: 70°ENE
Pressure: 30.15"   Gusts: NA
Location:  33.01°N, 84.5°W
Report Text: KOPN 211755Z AUTO 07008KT 030V090 10SM OVC009 11/08 A3015 RMK AO2
Loading
Personal Weather Stations






























Interactive Weather Map New forecast layout! Learn more

10-Day Weather Forecast

Advertisements
Track Severe Weather on mobile